KWHP/WHP METAR and TAF weather

Enter ICAO airport designator
Station Type Date Time Source
KWHP METAR 2024/06/15 23:55 UTC NOAA

KWHP 152355Z 00000KT 10SM SKC 30/11 A2977


Station Type Date Time Source
KWHP Decoded METAR 2024/06/15 23:55 UTC NOAA

Los Angeles, Whiteman Airport, CA, United States (KWHP) 34-15N 118-24W
Jun 15, 2024 - 07:55 PM EDT / 2024.06.15 2355 UTC
Wind: Calm:0
Visibility: 10 mile(s):0
Sky conditions: clear
Temperature: 86 F (30 C)
Dew Point: 51 F (11 C)
Relative Humidity: 30%
Pressure (altimeter): 29.77 in. Hg (1008 hPa)
ob: KWHP 152355Z 00000KT 10SM SKC 30/11 A2977
cycle: 0

Station Type Date Time Source
KWHP TAF UTC NOAA

Error!

Example: see airport list